sensor_id;sensor_type;location;lat;lon;timestamp;pressure;altitude;pressure_sealevel;temperature;humidity
7966;BME280;4028;43.272;26.932;2023-02-04T00:01:49;98921.19;;;2.44;100.00
7966;BME280;4028;43.272;26.932;2023-02-04T00:04:14;98928.69;;;2.36;100.00
7966;BME280;4028;43.272;26.932;2023-02-04T00:06:40;98924.19;;;2.38;100.00
7966;BME280;4028;43.272;26.932;2023-02-04T00:09:05;98925.88;;;2.24;100.00
7966;BME280;4028;43.272;26.932;2023-02-04T00:11:31;98930.00;;;2.14;100.00
7966;BME280;4028;43.272;26.932;2023-02-04T00:13:57;98931.78;;;2.14;100.00
7966;BME280;4028;43.272;26.932;2023-02-04T00:16:22;98919.56;;;2.14;100.00
7966;BME280;4028;43.272;26.932;2023-02-04T00:18:48;98927.50;;;2.13;100.00
7966;BME280;4028;43.272;26.932;2023-02-04T00:21:13;98917.78;;;2.15;100.00
7966;BME280;4028;43.272;26.932;2023-02-04T00:23:40;98903.91;;;2.14;100.00
7966;BME280;4028;43.272;26.932;2023-02-04T00:26:05;98911.28;;;2.22;100.00
7966;BME280;4028;43.272;26.932;2023-02-04T00:28:31;98909.50;;;2.22;100.00
7966;BME280;4028;43.272;26.932;2023-02-04T00:30:56;98896.16;;;2.27;100.00
7966;BME280;4028;43.272;26.932;2023-02-04T00:33:22;98896.56;;;2.21;100.00
7966;BME280;4028;43.272;26.932;2023-02-04T00:35:47;98892.59;;;2.28;100.00
7966;BME280;4028;43.272;26.932;2023-02-04T00:38:13;98888.91;;;2.18;100.00
7966;BME280;4028;43.272;26.932;2023-02-04T00:40:38;98887.56;;;2.25;100.00
7966;BME280;4028;43.272;26.932;2023-02-04T00:43:04;98889.69;;;2.32;100.00
7966;BME280;4028;43.272;26.932;2023-02-04T00:45:29;98887.78;;;2.22;100.00
7966;BME280;4028;43.272;26.932;2023-02-04T00:47:55;98886.94;;;2.21;100.00
7966;BME280;4028;43.272;26.932;2023-02-04T00:50:21;98881.50;;;2.24;100.00
7966;BME280;4028;43.272;26.932;2023-02-04T00:52:47;98882.81;;;2.31;100.00
7966;BME280;4028;43.272;26.932;2023-02-04T00:55:13;98857.69;;;2.16;100.00
7966;BME280;4028;43.272;26.932;2023-02-04T00:57:39;98876.84;;;2.29;100.00
7966;BME280;4028;43.272;26.932;2023-02-04T01:00:05;98869.16;;;2.41;100.00
7966;BME280;4028;43.272;26.932;2023-02-04T01:02:31;98870.91;;;2.40;100.00
7966;BME280;4028;43.272;26.932;2023-02-04T01:04:56;98857.56;;;2.45;100.00
7966;BME280;4028;43.272;26.932;2023-02-04T01:07:22;98850.88;;;2.41;100.00
7966;BME280;4028;43.272;26.932;2023-02-04T01:09:48;98846.44;;;2.28;100.00
7966;BME280;4028;43.272;26.932;2023-02-04T01:12:13;98849.50;;;2.35;100.00
7966;BME280;4028;43.272;26.932;2023-02-04T01:14:39;98839.59;;;2.40;100.00
7966;BME280;4028;43.272;26.932;2023-02-04T01:17:04;98831.22;;;2.35;100.00
7966;BME280;4028;43.272;26.932;2023-02-04T01:19:30;98833.34;;;2.43;100.00
7966;BME280;4028;43.272;26.932;2023-02-04T01:21:55;98824.66;;;2.42;100.00
7966;BME280;4028;43.272;26.932;2023-02-04T01:24:20;98827.41;;;2.53;100.00
7966;BME280;4028;43.272;26.932;2023-02-04T01:26:46;98826.06;;;2.60;100.00
7966;BME280;4028;43.272;26.932;2023-02-04T01:29:11;98818.56;;;2.81;100.00
7966;BME280;4028;43.272;26.932;2023-02-04T01:31:37;98819.72;;;2.90;100.00
7966;BME280;4028;43.272;26.932;2023-02-04T01:34:02;98816.69;;;2.96;100.00
7966;BME280;4028;43.272;26.932;2023-02-04T01:36:28;98814.22;;;3.07;100.00
7966;BME280;4028;43.272;26.932;2023-02-04T01:38:53;98816.47;;;3.12;100.00
7966;BME280;4028;43.272;26.932;2023-02-04T01:41:19;98815.44;;;3.02;100.00
7966;BME280;4028;43.272;26.932;2023-02-04T01:43:46;98807.28;;;2.81;100.00
7966;BME280;4028;43.272;26.932;2023-02-04T01:46:12;98803.09;;;2.91;100.00
7966;BME280;4028;43.272;26.932;2023-02-04T01:48:38;98796.97;;;2.92;100.00
7966;BME280;4028;43.272;26.932;2023-02-04T01:51:08;98790.75;;;2.80;100.00
7966;BME280;4028;43.272;26.932;2023-02-04T01:53:36;98789.63;;;2.84;100.00
7966;BME280;4028;43.272;26.932;2023-02-04T01:56:20;98780.63;;;2.89;100.00
7966;BME280;4028;43.272;26.932;2023-02-04T01:58:47;98775.53;;;2.87;100.00
7966;BME280;4028;43.272;26.932;2023-02-04T02:01:15;98777.50;;;2.96;100.00
7966;BME280;4028;43.272;26.932;2023-02-04T02:03:41;98768.50;;;3.00;100.00
7966;BME280;4028;43.272;26.932;2023-02-04T02:06:08;98757.75;;;2.92;100.00
7966;BME280;4028;43.272;26.932;2023-02-04T02:08:38;98757.53;;;2.95;100.00
7966;BME280;4028;43.272;26.932;2023-02-04T02:11:03;98752.53;;;2.92;100.00
7966;BME280;4028;43.272;26.932;2023-02-04T02:13:29;98747.31;;;2.92;100.00
7966;BME280;4028;43.272;26.932;2023-02-04T02:15:54;98750.63;;;2.94;100.00
7966;BME280;4028;43.272;26.932;2023-02-04T02:18:20;98741.53;;;3.00;100.00
7966;BME280;4028;43.272;26.932;2023-02-04T02:20:46;98734.63;;;2.99;100.00
7966;BME280;4028;43.272;26.932;2023-02-04T02:26:15;98717.59;;;2.93;100.00
7966;BME280;4028;43.272;26.932;2023-02-04T02:28:41;98725.72;;;3.01;100.00
7966;BME280;4028;43.272;26.932;2023-02-04T02:31:07;98728.56;;;2.98;100.00
7966;BME280;4028;43.272;26.932;2023-02-04T02:33:33;98723.88;;;2.91;100.00
7966;BME280;4028;43.272;26.932;2023-02-04T02:35:59;98720.09;;;2.95;100.00
7966;BME280;4028;43.272;26.932;2023-02-04T02:38:25;98720.31;;;3.04;100.00
7966;BME280;4028;43.272;26.932;2023-02-04T02:40:51;98714.63;;;3.10;100.00
7966;BME280;4028;43.272;26.932;2023-02-04T02:43:20;98701.50;;;2.99;100.00
7966;BME280;4028;43.272;26.932;2023-02-04T02:45:47;98701.25;;;3.15;100.00
7966;BME280;4028;43.272;26.932;2023-02-04T02:48:13;98700.41;;;3.15;100.00
7966;BME280;4028;43.272;26.932;2023-02-04T02:50:40;98695.94;;;3.04;100.00
7966;BME280;4028;43.272;26.932;2023-02-04T02:53:14;98696.25;;;2.99;100.00
7966;BME280;4028;43.272;26.932;2023-02-04T02:55:41;98689.88;;;3.03;100.00
7966;BME280;4028;43.272;26.932;2023-02-04T02:58:28;98687.03;;;3.06;100.00
7966;BME280;4028;43.272;26.932;2023-02-04T03:00:57;98678.16;;;2.96;100.00
7966;BME280;4028;43.272;26.932;2023-02-04T03:03:26;98677.66;;;3.04;100.00
7966;BME280;4028;43.272;26.932;2023-02-04T03:06:05;98671.47;;;3.05;100.00
7966;BME280;4028;43.272;26.932;2023-02-04T03:08:33;98672.09;;;3.08;100.00
7966;BME280;4028;43.272;26.932;2023-02-04T03:10:59;98671.78;;;3.00;100.00
7966;BME280;4028;43.272;26.932;2023-02-04T03:13:25;98666.25;;;3.05;100.00
7966;BME280;4028;43.272;26.932;2023-02-04T03:15:51;98656.00;;;3.02;100.00
7966;BME280;4028;43.272;26.932;2023-02-04T03:18:18;98651.31;;;2.94;100.00
7966;BME280;4028;43.272;26.932;2023-02-04T03:20:45;98664.38;;;2.94;100.00
7966;BME280;4028;43.272;26.932;2023-02-04T03:23:12;98654.06;;;2.93;100.00
7966;BME280;4028;43.272;26.932;2023-02-04T03:25:37;98649.66;;;2.93;100.00
7966;BME280;4028;43.272;26.932;2023-02-04T03:28:03;98653.94;;;2.94;100.00
7966;BME280;4028;43.272;26.932;2023-02-04T03:30:30;98647.03;;;2.93;100.00
7966;BME280;4028;43.272;26.932;2023-02-04T03:32:56;98646.22;;;2.93;100.00
7966;BME280;4028;43.272;26.932;2023-02-04T03:35:21;98640.25;;;2.91;100.00
7966;BME280;4028;43.272;26.932;2023-02-04T03:37:47;98648.00;;;2.92;100.00
7966;BME280;4028;43.272;26.932;2023-02-04T03:40:13;98628.75;;;2.93;100.00
7966;BME280;4028;43.272;26.932;2023-02-04T03:42:39;98627.41;;;2.88;100.00
7966;BME280;4028;43.272;26.932;2023-02-04T03:45:04;98630.72;;;2.90;100.00
7966;BME280;4028;43.272;26.932;2023-02-04T03:47:30;98611.72;;;2.88;100.00
7966;BME280;4028;43.272;26.932;2023-02-04T03:49:55;98628.84;;;2.92;100.00
7966;BME280;4028;43.272;26.932;2023-02-04T03:52:21;98611.41;;;2.92;100.00
7966;BME280;4028;43.272;26.932;2023-02-04T03:54:46;98607.59;;;2.96;100.00
7966;BME280;4028;43.272;26.932;2023-02-04T03:57:12;98610.84;;;3.00;100.00
7966;BME280;4028;43.272;26.932;2023-02-04T03:59:40;98603.63;;;3.03;100.00
7966;BME280;4028;43.272;26.932;2023-02-04T04:02:05;98594.97;;;2.90;100.00
7966;BME280;4028;43.272;26.932;2023-02-04T04:04:30;98594.47;;;2.85;100.00
7966;BME280;4028;43.272;26.932;2023-02-04T04:06:56;98588.53;;;2.83;100.00
7966;BME280;4028;43.272;26.932;2023-02-04T04:09:21;98582.25;;;2.85;100.00
7966;BME280;4028;43.272;26.932;2023-02-04T04:11:47;98587.97;;;2.91;100.00
7966;BME280;4028;43.272;26.932;2023-02-04T04:14:12;98582.66;;;2.92;100.00
7966;BME280;4028;43.272;26.932;2023-02-04T04:16:38;98581.28;;;2.86;100.00
7966;BME280;4028;43.272;26.932;2023-02-04T04:19:03;98572.63;;;2.86;100.00
7966;BME280;4028;43.272;26.932;2023-02-04T04:21:29;98573.06;;;2.80;100.00
7966;BME280;4028;43.272;26.932;2023-02-04T04:23:55;98574.22;;;2.76;100.00
7966;BME280;4028;43.272;26.932;2023-02-04T04:26:20;98578.00;;;2.72;100.00
7966;BME280;4028;43.272;26.932;2023-02-04T04:28:46;98565.88;;;2.71;100.00
7966;BME280;4028;43.272;26.932;2023-02-04T04:31:11;98570.38;;;2.69;100.00
7966;BME280;4028;43.272;26.932;2023-02-04T04:33:37;98565.47;;;2.64;100.00
7966;BME280;4028;43.272;26.932;2023-02-04T04:36:04;98566.13;;;2.55;100.00
7966;BME280;4028;43.272;26.932;2023-02-04T04:38:30;98564.69;;;2.51;100.00
7966;BME280;4028;43.272;26.932;2023-02-04T04:40:55;98557.81;;;2.37;100.00
7966;BME280;4028;43.272;26.932;2023-02-04T04:43:21;98554.03;;;2.28;100.00
7966;BME280;4028;43.272;26.932;2023-02-04T04:45:46;98552.19;;;2.30;100.00
7966;BME280;4028;43.272;26.932;2023-02-04T04:48:12;98557.50;;;2.29;100.00
7966;BME280;4028;43.272;26.932;2023-02-04T04:50:37;98556.03;;;2.25;100.00
7966;BME280;4028;43.272;26.932;2023-02-04T04:53:03;98546.75;;;2.21;100.00
7966;BME280;4028;43.272;26.932;2023-02-04T04:55:28;98549.25;;;2.22;100.00
7966;BME280;4028;43.272;26.932;2023-02-04T04:57:54;98551.34;;;2.17;100.00
7966;BME280;4028;43.272;26.932;2023-02-04T05:00:20;98539.22;;;2.03;100.00
7966;BME280;4028;43.272;26.932;2023-02-04T05:02:46;98540.06;;;2.04;100.00
7966;BME280;4028;43.272;26.932;2023-02-04T05:05:12;98536.94;;;1.99;100.00
7966;BME280;4028;43.272;26.932;2023-02-04T05:07:38;98535.69;;;2.04;100.00
7966;BME280;4028;43.272;26.932;2023-02-04T05:10:04;98533.19;;;2.03;100.00
7966;BME280;4028;43.272;26.932;2023-02-04T05:12:30;98526.63;;;1.97;100.00
7966;BME280;4028;43.272;26.932;2023-02-04T05:14:55;98522.75;;;1.90;100.00
7966;BME280;4028;43.272;26.932;2023-02-04T05:17:21;98526.94;;;1.93;100.00
7966;BME280;4028;43.272;26.932;2023-02-04T05:19:46;98531.84;;;1.97;100.00
7966;BME280;4028;43.272;26.932;2023-02-04T05:22:12;98531.84;;;1.97;100.00
7966;BME280;4028;43.272;26.932;2023-02-04T05:24:37;98525.75;;;1.84;100.00
7966;BME280;4028;43.272;26.932;2023-02-04T05:27:03;98537.16;;;1.96;100.00
7966;BME280;4028;43.272;26.932;2023-02-04T05:29:28;98530.78;;;1.87;100.00
7966;BME280;4028;43.272;26.932;2023-02-04T05:31:53;98532.16;;;1.80;100.00
7966;BME280;4028;43.272;26.932;2023-02-04T05:34:19;98527.13;;;1.77;100.00
7966;BME280;4028;43.272;26.932;2023-02-04T05:36:44;98516.19;;;1.72;100.00
7966;BME280;4028;43.272;26.932;2023-02-04T05:39:10;98539.22;;;1.78;100.00
7966;BME280;4028;43.272;26.932;2023-02-04T05:41:35;98528.78;;;1.78;100.00
7966;BME280;4028;43.272;26.932;2023-02-04T05:44:01;98528.19;;;1.74;100.00
7966;BME280;4028;43.272;26.932;2023-02-04T05:46:27;98522.88;;;1.76;100.00
7966;BME280;4028;43.272;26.932;2023-02-04T05:48:52;98523.38;;;1.81;100.00
7966;BME280;4028;43.272;26.932;2023-02-04T05:51:17;98525.25;;;1.79;100.00
7966;BME280;4028;43.272;26.932;2023-02-04T05:53:43;98523.69;;;1.76;100.00
7966;BME280;4028;43.272;26.932;2023-02-04T05:56:08;98524.34;;;1.80;100.00
7966;BME280;4028;43.272;26.932;2023-02-04T05:58:34;98531.44;;;1.91;100.00
7966;BME280;4028;43.272;26.932;2023-02-04T06:01:00;98527.75;;;1.93;100.00
7966;BME280;4028;43.272;26.932;2023-02-04T06:03:26;98531.72;;;1.99;100.00
7966;BME280;4028;43.272;26.932;2023-02-04T06:05:52;98531.22;;;2.06;100.00
7966;BME280;4028;43.272;26.932;2023-02-04T06:08:18;98527.78;;;2.06;100.00
7966;BME280;4028;43.272;26.932;2023-02-04T06:10:43;98535.28;;;2.11;100.00
7966;BME280;4028;43.272;26.932;2023-02-04T06:13:09;98531.28;;;2.18;100.00
7966;BME280;4028;43.272;26.932;2023-02-04T06:15:34;98521.06;;;2.15;100.00
7966;BME280;4028;43.272;26.932;2023-02-04T06:18:00;98523.78;;;2.13;100.00
7966;BME280;4028;43.272;26.932;2023-02-04T06:20:26;98518.38;;;2.16;100.00
7966;BME280;4028;43.272;26.932;2023-02-04T06:22:51;98522.53;;;2.19;100.00
7966;BME280;4028;43.272;26.932;2023-02-04T06:25:19;98520.22;;;2.27;100.00
7966;BME280;4028;43.272;26.932;2023-02-04T06:27:45;98522.81;;;2.40;100.00
7966;BME280;4028;43.272;26.932;2023-02-04T06:30:12;98523.63;;;2.40;100.00
7966;BME280;4028;43.272;26.932;2023-02-04T06:32:38;98523.53;;;2.42;100.00
7966;BME280;4028;43.272;26.932;2023-02-04T06:35:04;98526.03;;;2.43;100.00
7966;BME280;4028;43.272;26.932;2023-02-04T06:37:29;98528.44;;;2.46;100.00
7966;BME280;4028;43.272;26.932;2023-02-04T06:39:55;98526.16;;;2.42;100.00
7966;BME280;4028;43.272;26.932;2023-02-04T06:42:22;98516.81;;;2.50;100.00
7966;BME280;4028;43.272;26.932;2023-02-04T06:44:49;98521.84;;;2.53;100.00
7966;BME280;4028;43.272;26.932;2023-02-04T06:47:15;98515.47;;;2.57;100.00
7966;BME280;4028;43.272;26.932;2023-02-04T06:49:41;98526.03;;;2.56;100.00
7966;BME280;4028;43.272;26.932;2023-02-04T06:52:06;98522.56;;;2.55;100.00
7966;BME280;4028;43.272;26.932;2023-02-04T06:54:32;98523.69;;;2.64;100.00
7966;BME280;4028;43.272;26.932;2023-02-04T06:56:57;98516.69;;;2.65;100.00
7966;BME280;4028;43.272;26.932;2023-02-04T06:59:32;98524.06;;;2.71;100.00
7966;BME280;4028;43.272;26.932;2023-02-04T07:01:57;98520.53;;;2.72;100.00
7966;BME280;4028;43.272;26.932;2023-02-04T07:04:23;98519.25;;;2.77;100.00
7966;BME280;4028;43.272;26.932;2023-02-04T07:06:48;98519.81;;;2.94;100.00
7966;BME280;4028;43.272;26.932;2023-02-04T07:09:14;98514.22;;;2.87;100.00
7966;BME280;4028;43.272;26.932;2023-02-04T07:11:39;98505.44;;;2.88;100.00
7966;BME280;4028;43.272;26.932;2023-02-04T07:14:05;98507.78;;;2.91;100.00
7966;BME280;4028;43.272;26.932;2023-02-04T07:16:30;98505.75;;;2.83;100.00
7966;BME280;4028;43.272;26.932;2023-02-04T07:18:56;98496.84;;;2.86;100.00
7966;BME280;4028;43.272;26.932;2023-02-04T07:21:21;98498.91;;;2.94;100.00
7966;BME280;4028;43.272;26.932;2023-02-04T07:23:47;98504.59;;;2.88;100.00
7966;BME280;4028;43.272;26.932;2023-02-04T07:26:12;98489.63;;;2.90;100.00
7966;BME280;4028;43.272;26.932;2023-02-04T07:28:38;98488.69;;;2.91;100.00
7966;BME280;4028;43.272;26.932;2023-02-04T07:31:05;98474.28;;;2.85;100.00
7966;BME280;4028;43.272;26.932;2023-02-04T07:33:31;98489.63;;;2.90;100.00
7966;BME280;4028;43.272;26.932;2023-02-04T07:35:56;98487.22;;;2.86;100.00
7966;BME280;4028;43.272;26.932;2023-02-04T07:38:22;98493.31;;;2.87;100.00
7966;BME280;4028;43.272;26.932;2023-02-04T07:40:47;98484.97;;;2.82;100.00
7966;BME280;4028;43.272;26.932;2023-02-04T07:43:13;98487.84;;;2.90;100.00
7966;BME280;4028;43.272;26.932;2023-02-04T07:45:38;98475.28;;;2.95;100.00
7966;BME280;4028;43.272;26.932;2023-02-04T07:48:04;98489.59;;;3.02;100.00
7966;BME280;4028;43.272;26.932;2023-02-04T07:50:29;98478.59;;;3.21;100.00
7966;BME280;4028;43.272;26.932;2023-02-04T07:52:55;98473.63;;;3.29;100.00
7966;BME280;4028;43.272;26.932;2023-02-04T07:55:20;98476.59;;;3.36;100.00
7966;BME280;4028;43.272;26.932;2023-02-04T07:57:46;98470.34;;;3.50;100.00
7966;BME280;4028;43.272;26.932;2023-02-04T08:00:12;98465.97;;;3.61;100.00
7966;BME280;4028;43.272;26.932;2023-02-04T08:02:39;98469.91;;;3.67;100.00
7966;BME280;4028;43.272;26.932;2023-02-04T08:05:06;98466.09;;;3.82;100.00
7966;BME280;4028;43.272;26.932;2023-02-04T08:07:32;98477.53;;;3.81;100.00
7966;BME280;4028;43.272;26.932;2023-02-04T08:09:57;98469.81;;;3.80;100.00
7966;BME280;4028;43.272;26.932;2023-02-04T08:12:23;98465.06;;;3.85;100.00
7966;BME280;4028;43.272;26.932;2023-02-04T08:14:48;98467.66;;;4.07;100.00
7966;BME280;4028;43.272;26.932;2023-02-04T08:17:13;98485.28;;;4.28;100.00
7966;BME280;4028;43.272;26.932;2023-02-04T08:19:39;98474.78;;;4.39;100.00
7966;BME280;4028;43.272;26.932;2023-02-04T08:22:04;98474.88;;;4.49;100.00
7966;BME280;4028;43.272;26.932;2023-02-04T08:24:30;98465.97;;;4.40;100.00
7966;BME280;4028;43.272;26.932;2023-02-04T08:26:55;98469.81;;;4.36;100.00
7966;BME280;4028;43.272;26.932;2023-02-04T08:29:22;98464.69;;;4.23;100.00
7966;BME280;4028;43.272;26.932;2023-02-04T08:31:50;98468.72;;;3.94;100.00
7966;BME280;4028;43.272;26.932;2023-02-04T08:34:15;98456.03;;;3.89;100.00
7966;BME280;4028;43.272;26.932;2023-02-04T08:36:41;98458.28;;;4.05;100.00
7966;BME280;4028;43.272;26.932;2023-02-04T08:39:09;98463.03;;;4.11;100.00
7966;BME280;4028;43.272;26.932;2023-02-04T08:41:34;98461.13;;;4.13;100.00
7966;BME280;4028;43.272;26.932;2023-02-04T08:44:00;98463.84;;;4.23;100.00
7966;BME280;4028;43.272;26.932;2023-02-04T08:46:25;98457.78;;;4.22;100.00
7966;BME280;4028;43.272;26.932;2023-02-04T08:48:51;98459.94;;;4.17;100.00
7966;BME280;4028;43.272;26.932;2023-02-04T08:51:16;98450.16;;;4.08;100.00
7966;BME280;4028;43.272;26.932;2023-02-04T08:53:42;98448.84;;;4.13;100.00
7966;BME280;4028;43.272;26.932;2023-02-04T08:56:07;98443.28;;;4.07;100.00
7966;BME280;4028;43.272;26.932;2023-02-04T08:58:34;98451.47;;;4.13;100.00
7966;BME280;4028;43.272;26.932;2023-02-04T09:01:00;98445.03;;;4.17;100.00
7966;BME280;4028;43.272;26.932;2023-02-04T09:03:26;98454.94;;;4.25;100.00
7966;BME280;4028;43.272;26.932;2023-02-04T09:05:51;98455.63;;;4.27;100.00
7966;BME280;4028;43.272;26.932;2023-02-04T09:08:17;98448.25;;;4.32;100.00
7966;BME280;4028;43.272;26.932;2023-02-04T09:10:43;98449.31;;;4.41;100.00
7966;BME280;4028;43.272;26.932;2023-02-04T09:13:13;98442.84;;;4.45;100.00
7966;BME280;4028;43.272;26.932;2023-02-04T09:15:39;98442.84;;;4.45;100.00
7966;BME280;4028;43.272;26.932;2023-02-04T09:18:04;98431.53;;;4.44;100.00
7966;BME280;4028;43.272;26.932;2023-02-04T09:20:38;98437.84;;;4.53;100.00
7966;BME280;4028;43.272;26.932;2023-02-04T09:23:04;98434.84;;;4.58;100.00
7966;BME280;4028;43.272;26.932;2023-02-04T09:25:35;98436.47;;;4.70;100.00
7966;BME280;4028;43.272;26.932;2023-02-04T09:28:00;98427.91;;;4.68;100.00
7966;BME280;4028;43.272;26.932;2023-02-04T09:30:26;98426.81;;;4.70;100.00
7966;BME280;4028;43.272;26.932;2023-02-04T09:32:51;98429.34;;;4.72;100.00
7966;BME280;4028;43.272;26.932;2023-02-04T09:35:17;98419.19;;;4.79;100.00
7966;BME280;4028;43.272;26.932;2023-02-04T09:37:42;98416.06;;;4.85;100.00
7966;BME280;4028;43.272;26.932;2023-02-04T09:40:13;98426.56;;;5.06;100.00
7966;BME280;4028;43.272;26.932;2023-02-04T09:42:39;98411.56;;;5.08;100.00
7966;BME280;4028;43.272;26.932;2023-02-04T09:45:05;98419.03;;;5.12;100.00
7966;BME280;4028;43.272;26.932;2023-02-04T09:47:31;98406.03;;;5.11;100.00
7966;BME280;4028;43.272;26.932;2023-02-04T09:49:57;98408.63;;;5.22;100.00
7966;BME280;4028;43.272;26.932;2023-02-04T09:52:22;98408.56;;;5.12;100.00
7966;BME280;4028;43.272;26.932;2023-02-04T09:54:49;98408.34;;;5.25;100.00
7966;BME280;4028;43.272;26.932;2023-02-04T09:57:17;98406.84;;;5.22;100.00
7966;BME280;4028;43.272;26.932;2023-02-04T09:59:45;98405.03;;;5.23;100.00
7966;BME280;4028;43.272;26.932;2023-02-04T10:02:20;98399.50;;;5.47;100.00
7966;BME280;4028;43.272;26.932;2023-02-04T10:04:47;98391.13;;;5.53;100.00
7966;BME280;4028;43.272;26.932;2023-02-04T10:07:21;98392.59;;;5.77;100.00
7966;BME280;4028;43.272;26.932;2023-02-04T10:09:52;98378.25;;;5.81;100.00
7966;BME280;4028;43.272;26.932;2023-02-04T10:12:19;98365.97;;;5.81;100.00
7966;BME280;4028;43.272;26.932;2023-02-04T10:14:44;98375.56;;;5.92;100.00
7966;BME280;4028;43.272;26.932;2023-02-04T10:17:19;98383.91;;;6.07;100.00
7966;BME280;4028;43.272;26.932;2023-02-04T10:19:46;98382.41;;;6.23;100.00
7966;BME280;4028;43.272;26.932;2023-02-04T10:22:17;98372.22;;;6.30;100.00
7966;BME280;4028;43.272;26.932;2023-02-04T10:24:43;98371.63;;;6.17;100.00
7966;BME280;4028;43.272;26.932;2023-02-04T10:27:10;98368.03;;;6.18;100.00
7966;BME280;4028;43.272;26.932;2023-02-04T10:29:36;98379.06;;;6.02;100.00
7966;BME280;4028;43.272;26.932;2023-02-04T10:32:01;98372.94;;;5.92;100.00
7966;BME280;4028;43.272;26.932;2023-02-04T10:34:39;98378.22;;;6.02;100.00
7966;BME280;4028;43.272;26.932;2023-02-04T10:37:19;98372.03;;;5.82;100.00
7966;BME280;4028;43.272;26.932;2023-02-04T10:39:45;98379.47;;;5.77;100.00
7966;BME280;4028;43.272;26.932;2023-02-04T10:42:46;98388.84;;;5.69;100.00
7966;BME280;4028;43.272;26.932;2023-02-04T10:45:28;98381.47;;;5.84;100.00
7966;BME280;4028;43.272;26.932;2023-02-04T10:47:55;98383.06;;;5.76;100.00
7966;BME280;4028;43.272;26.932;2023-02-04T10:50:23;98375.84;;;5.68;100.00
7966;BME280;4028;43.272;26.932;2023-02-04T10:52:54;98377.81;;;5.76;100.00
7966;BME280;4028;43.272;26.932;2023-02-04T10:55:40;98379.19;;;5.70;100.00
7966;BME280;4028;43.272;26.932;2023-02-04T10:58:14;98372.31;;;5.79;100.00
7966;BME280;4028;43.272;26.932;2023-02-04T11:00:41;98372.19;;;5.80;100.00
7966;BME280;4028;43.272;26.932;2023-02-04T11:03:11;98376.75;;;5.88;100.00
7966;BME280;4028;43.272;26.932;2023-02-04T11:05:39;98379.34;;;5.78;100.00
7966;BME280;4028;43.272;26.932;2023-02-04T11:08:31;98373.13;;;5.69;100.00
7966;BME280;4028;43.272;26.932;2023-02-04T11:11:06;98374.47;;;5.64;100.00
7966;BME280;4028;43.272;26.932;2023-02-04T11:13:44;98374.97;;;5.58;100.00
7966;BME280;4028;43.272;26.932;2023-02-04T11:16:30;98375.13;;;5.56;100.00
7966;BME280;4028;43.272;26.932;2023-02-04T11:19:05;98378.03;;;5.63;100.00
7966;BME280;4028;43.272;26.932;2023-02-04T11:24:24;98388.19;;;5.46;100.00
7966;BME280;4028;43.272;26.932;2023-02-04T11:26:52;98372.50;;;5.56;100.00
7966;BME280;4028;43.272;26.932;2023-02-04T11:29:31;98387.34;;;5.46;100.00
7966;BME280;4028;43.272;26.932;2023-02-04T11:32:29;98381.81;;;5.39;100.00
7966;BME280;4028;43.272;26.932;2023-02-04T11:37:39;98374.25;;;5.25;100.00
7966;BME280;4028;43.272;26.932;2023-02-04T11:42:47;98378.91;;;5.21;100.00
7966;BME280;4028;43.272;26.932;2023-02-04T11:45:15;98382.06;;;5.15;100.00
7966;BME280;4028;43.272;26.932;2023-02-04T11:47:42;98385.19;;;5.09;100.00
7966;BME280;4028;43.272;26.932;2023-02-04T11:50:24;98376.00;;;5.15;100.00
7966;BME280;4028;43.272;26.932;2023-02-04T11:52:53;98379.13;;;5.30;100.00
7966;BME280;4028;43.272;26.932;2023-02-04T11:55:18;98381.94;;;5.38;100.00
7966;BME280;4028;43.272;26.932;2023-02-04T11:57:45;98376.78;;;5.36;100.00
7966;BME280;4028;43.272;26.932;2023-02-04T12:00:19;98365.81;;;5.21;100.00
7966;BME280;4028;43.272;26.932;2023-02-04T12:02:47;98374.00;;;5.28;100.00
7966;BME280;4028;43.272;26.932;2023-02-04T12:05:18;98379.78;;;5.22;100.00
7966;BME280;4028;43.272;26.932;2023-02-04T12:07:45;98372.97;;;5.19;100.00
7966;BME280;4028;43.272;26.932;2023-02-04T12:12:48;98361.28;;;5.03;100.00
7966;BME280;4028;43.272;26.932;2023-02-04T12:15:19;98382.97;;;5.05;100.00
7966;BME280;4028;43.272;26.932;2023-02-04T12:17:45;98369.72;;;5.06;100.00
7966;BME280;4028;43.272;26.932;2023-02-04T12:20:12;98378.38;;;5.18;100.00
7966;BME280;4028;43.272;26.932;2023-02-04T12:22:38;98381.75;;;5.30;100.00
7966;BME280;4028;43.272;26.932;2023-02-04T12:25:04;98384.13;;;5.33;100.00
7966;BME280;4028;43.272;26.932;2023-02-04T12:27:29;98386.03;;;5.31;100.00
7966;BME280;4028;43.272;26.932;2023-02-04T12:29:55;98388.03;;;5.17;100.00
7966;BME280;4028;43.272;26.932;2023-02-04T12:32:20;98389.94;;;5.15;100.00
7966;BME280;4028;43.272;26.932;2023-02-04T12:34:46;98398.75;;;5.14;100.00
7966;BME280;4028;43.272;26.932;2023-02-04T12:37:11;98395.94;;;5.06;100.00
7966;BME280;4028;43.272;26.932;2023-02-04T12:39:37;98396.72;;;4.97;100.00
7966;BME280;4028;43.272;26.932;2023-02-04T12:42:02;98396.75;;;4.86;100.00
7966;BME280;4028;43.272;26.932;2023-02-04T12:44:28;98405.06;;;4.91;100.00
7966;BME280;4028;43.272;26.932;2023-02-04T12:46:54;98407.69;;;4.91;100.00
7966;BME280;4028;43.272;26.932;2023-02-04T12:49:20;98407.91;;;4.99;100.00
7966;BME280;4028;43.272;26.932;2023-02-04T12:51:45;98411.22;;;5.01;100.00
7966;BME280;4028;43.272;26.932;2023-02-04T12:54:11;98407.53;;;5.04;100.00
7966;BME280;4028;43.272;26.932;2023-02-04T12:56:36;98410.91;;;5.15;100.00
7966;BME280;4028;43.272;26.932;2023-02-04T12:59:01;98418.00;;;5.25;100.00
7966;BME280;4028;43.272;26.932;2023-02-04T13:01:27;98410.06;;;5.36;100.00
7966;BME280;4028;43.272;26.932;2023-02-04T13:03:52;98411.78;;;5.46;100.00
7966;BME280;4028;43.272;26.932;2023-02-04T13:06:18;98426.03;;;5.44;100.00
7966;BME280;4028;43.272;26.932;2023-02-04T13:08:43;98412.97;;;5.33;100.00
7966;BME280;4028;43.272;26.932;2023-02-04T13:11:09;98423.41;;;5.23;100.00
7966;BME280;4028;43.272;26.932;2023-02-04T13:13:34;98442.72;;;5.22;100.00
7966;BME280;4028;43.272;26.932;2023-02-04T13:16:00;98437.72;;;5.19;100.00
7966;BME280;4028;43.272;26.932;2023-02-04T13:18:25;98434.41;;;5.17;100.00
7966;BME280;4028;43.272;26.932;2023-02-04T13:20:51;98433.31;;;5.19;100.00
7966;BME280;4028;43.272;26.932;2023-02-04T13:23:16;98446.28;;;5.21;100.00